sensor_id;sensor_type;location;lat;lon;timestamp;temperature;humidity
23723;DHT22;12042;52.136;5.584;2023-02-16T06:41:59;6.80;99.90
23723;DHT22;12042;52.136;5.584;2023-02-16T06:44:25;6.80;99.90
23723;DHT22;12042;52.136;5.584;2023-02-16T06:46:50;6.90;99.90
23723;DHT22;12042;52.136;5.584;2023-02-16T06:49:18;7.00;99.90
23723;DHT22;12042;52.136;5.584;2023-02-16T06:51:44;7.00;99.90
23723;DHT22;12042;52.136;5.584;2023-02-16T06:54:11;7.00;99.90
23723;DHT22;12042;52.136;5.584;2023-02-16T06:56:36;7.10;99.90
23723;DHT22;12042;52.136;5.584;2023-02-16T06:59:02;7.10;99.90
23723;DHT22;12042;52.136;5.584;2023-02-16T07:01:29;7.10;99.90
23723;DHT22;12042;52.136;5.584;2023-02-16T07:03:56;7.10;99.90
23723;DHT22;12042;52.136;5.584;2023-02-16T07:06:23;7.10;99.90
23723;DHT22;12042;52.136;5.584;2023-02-16T07:08:49;7.10;99.90
23723;DHT22;12042;52.136;5.584;2023-02-16T07:11:16;7.00;99.90
23723;DHT22;12042;52.136;5.584;2023-02-16T07:13:41;7.00;99.90
23723;DHT22;12042;52.136;5.584;2023-02-16T07:16:07;7.00;99.90
23723;DHT22;12042;52.136;5.584;2023-02-16T07:18:33;7.00;99.90
23723;DHT22;12042;52.136;5.584;2023-02-16T07:20:59;7.00;99.90
23723;DHT22;12042;52.136;5.584;2023-02-16T07:23:24;7.00;99.90
23723;DHT22;12042;52.136;5.584;2023-02-16T07:25:50;7.00;99.90
23723;DHT22;12042;52.136;5.584;2023-02-16T07:28:16;7.00;99.90
23723;DHT22;12042;52.136;5.584;2023-02-16T07:30:42;7.00;99.90
23723;DHT22;12042;52.136;5.584;2023-02-16T07:33:08;7.00;99.90
23723;DHT22;12042;52.136;5.584;2023-02-16T07:35:34;7.00;99.90
23723;DHT22;12042;52.136;5.584;2023-02-16T07:38:00;7.00;99.90
23723;DHT22;12042;52.136;5.584;2023-02-16T07:40:26;7.10;99.90
23723;DHT22;12042;52.136;5.584;2023-02-16T07:42:51;7.10;99.90
23723;DHT22;12042;52.136;5.584;2023-02-16T07:45:17;7.10;99.90
23723;DHT22;12042;52.136;5.584;2023-02-16T07:47:43;7.10;99.90
23723;DHT22;12042;52.136;5.584;2023-02-16T07:50:08;7.10;99.90
23723;DHT22;12042;52.136;5.584;2023-02-16T07:52:34;7.10;99.90
23723;DHT22;12042;52.136;5.584;2023-02-16T07:55:00;7.20;99.90
23723;DHT22;12042;52.136;5.584;2023-02-16T07:57:27;7.20;99.90
23723;DHT22;12042;52.136;5.584;2023-02-16T07:59:53;7.20;99.90
23723;DHT22;12042;52.136;5.584;2023-02-16T08:02:22;7.30;99.90
23723;DHT22;12042;52.136;5.584;2023-02-16T08:04:48;7.30;99.90
23723;DHT22;12042;52.136;5.584;2023-02-16T08:07:15;7.30;99.90
23723;DHT22;12042;52.136;5.584;2023-02-16T08:09:40;7.40;99.90
23723;DHT22;12042;52.136;5.584;2023-02-16T08:12:11;7.40;99.90
23723;DHT22;12042;52.136;5.584;2023-02-16T08:14:38;7.40;99.90
23723;DHT22;12042;52.136;5.584;2023-02-16T08:17:05;7.40;99.90
23723;DHT22;12042;52.136;5.584;2023-02-16T08:19:32;7.40;99.90
23723;DHT22;12042;52.136;5.584;2023-02-16T08:21:59;7.40;99.90
23723;DHT22;12042;52.136;5.584;2023-02-16T08:24:25;7.30;99.90
23723;DHT22;12042;52.136;5.584;2023-02-16T08:26:51;7.30;99.90
23723;DHT22;12042;52.136;5.584;2023-02-16T08:29:19;7.40;99.90
23723;DHT22;12042;52.136;5.584;2023-02-16T08:31:45;7.40;99.90
23723;DHT22;12042;52.136;5.584;2023-02-16T08:34:13;7.40;99.90
23723;DHT22;12042;52.136;5.584;2023-02-16T08:36:40;7.50;99.90
23723;DHT22;12042;52.136;5.584;2023-02-16T08:39:10;7.50;99.90
23723;DHT22;12042;52.136;5.584;2023-02-16T08:41:37;7.50;99.90
23723;DHT22;12042;52.136;5.584;2023-02-16T08:44:04;7.50;99.90
23723;DHT22;12042;52.136;5.584;2023-02-16T08:46:32;7.50;99.90
23723;DHT22;12042;52.136;5.584;2023-02-16T08:48:58;7.50;99.90
23723;DHT22;12042;52.136;5.584;2023-02-16T08:51:27;7.60;99.90
23723;DHT22;12042;52.136;5.584;2023-02-16T08:53:53;7.60;99.90
23723;DHT22;12042;52.136;5.584;2023-02-16T08:56:18;7.60;99.90
23723;DHT22;12042;52.136;5.584;2023-02-16T08:58:45;7.70;99.90
23723;DHT22;12042;52.136;5.584;2023-02-16T09:01:12;7.70;99.90
23723;DHT22;12042;52.136;5.584;2023-02-16T09:03:39;7.70;99.90
23723;DHT22;12042;52.136;5.584;2023-02-16T09:06:10;7.70;99.90
23723;DHT22;12042;52.136;5.584;2023-02-16T09:08:37;7.70;99.90
23723;DHT22;12042;52.136;5.584;2023-02-16T09:11:05;7.70;99.90
23723;DHT22;12042;52.136;5.584;2023-02-16T09:13:36;7.70;99.90
23723;DHT22;12042;52.136;5.584;2023-02-16T09:16:07;7.80;99.90
23723;DHT22;12042;52.136;5.584;2023-02-16T09:18:34;7.80;99.90
23723;DHT22;12042;52.136;5.584;2023-02-16T09:21:09;7.80;99.90
23723;DHT22;12042;52.136;5.584;2023-02-16T09:23:39;7.70;99.90
23723;DHT22;12042;52.136;5.584;2023-02-16T09:26:06;7.80;99.90
23723;DHT22;12042;52.136;5.584;2023-02-16T09:28:33;7.80;99.90
23723;DHT22;12042;52.136;5.584;2023-02-16T09:30:59;7.80;99.90
23723;DHT22;12042;52.136;5.584;2023-02-16T09:33:25;7.70;99.90
23723;DHT22;12042;52.136;5.584;2023-02-16T09:35:51;7.80;99.90
23723;DHT22;12042;52.136;5.584;2023-02-16T09:38:16;7.80;99.90
23723;DHT22;12042;52.136;5.584;2023-02-16T09:40:43;7.80;99.90
23723;DHT22;12042;52.136;5.584;2023-02-16T09:45:46;7.70;99.90
23723;DHT22;12042;52.136;5.584;2023-02-16T09:48:33;7.80;99.90
23723;DHT22;12042;52.136;5.584;2023-02-16T09:51:00;7.70;99.90
23723;DHT22;12042;52.136;5.584;2023-02-16T09:53:40;7.70;99.90
23723;DHT22;12042;52.136;5.584;2023-02-16T09:58:48;7.70;99.90
23723;DHT22;12042;52.136;5.584;2023-02-16T10:04:25;7.70;99.90
23723;DHT22;12042;52.136;5.584;2023-02-16T10:09:37;7.80;99.90
23723;DHT22;12042;52.136;5.584;2023-02-16T10:12:10;7.70;99.90
23723;DHT22;12042;52.136;5.584;2023-02-16T10:23:15;7.70;99.90
23723;DHT22;12042;52.136;5.584;2023-02-16T10:25:51;7.60;99.90
23723;DHT22;12042;52.136;5.584;2023-02-16T10:28:27;7.60;99.90
23723;DHT22;12042;52.136;5.584;2023-02-16T10:31:02;7.60;99.90
23723;DHT22;12042;52.136;5.584;2023-02-16T10:33:41;7.60;99.90
23723;DHT22;12042;52.136;5.584;2023-02-16T10:36:29;7.60;99.90
23723;DHT22;12042;52.136;5.584;2023-02-16T10:44:41;7.80;99.90
23723;DHT22;12042;52.136;5.584;2023-02-16T10:47:28;7.80;99.90
23723;DHT22;12042;52.136;5.584;2023-02-16T10:49:54;7.90;99.90
23723;DHT22;12042;52.136;5.584;2023-02-16T10:52:21;7.90;99.90
23723;DHT22;12042;52.136;5.584;2023-02-16T10:54:47;7.90;99.90
23723;DHT22;12042;52.136;5.584;2023-02-16T10:57:25;8.00;99.90
23723;DHT22;12042;52.136;5.584;2023-02-16T10:59:52;8.10;99.90
23723;DHT22;12042;52.136;5.584;2023-02-16T11:02:33;8.10;99.90
23723;DHT22;12042;52.136;5.584;2023-02-16T11:07:53;8.20;99.90
23723;DHT22;12042;52.136;5.584;2023-02-16T11:10:21;8.20;99.90
23723;DHT22;12042;52.136;5.584;2023-02-16T11:12:53;8.30;99.90
23723;DHT22;12042;52.136;5.584;2023-02-16T11:15:23;8.30;99.90
23723;DHT22;12042;52.136;5.584;2023-02-16T11:17:56;8.30;99.90
23723;DHT22;12042;52.136;5.584;2023-02-16T11:20:31;8.40;99.90
23723;DHT22;12042;52.136;5.584;2023-02-16T11:25:51;8.40;99.90
23723;DHT22;12042;52.136;5.584;2023-02-16T11:28:32;8.50;99.90
23723;DHT22;12042;52.136;5.584;2023-02-16T11:31:04;8.50;99.90
23723;DHT22;12042;52.136;5.584;2023-02-16T11:33:35;8.50;99.90
23723;DHT22;12042;52.136;5.584;2023-02-16T11:36:02;8.50;99.90
23723;DHT22;12042;52.136;5.584;2023-02-16T11:38:32;8.40;99.90
23723;DHT22;12042;52.136;5.584;2023-02-16T11:41:00;8.40;99.90
23723;DHT22;12042;52.136;5.584;2023-02-16T11:43:29;8.50;99.90
23723;DHT22;12042;52.136;5.584;2023-02-16T11:46:06;8.50;99.90
23723;DHT22;12042;52.136;5.584;2023-02-16T11:48:34;8.50;99.90
23723;DHT22;12042;52.136;5.584;2023-02-16T11:51:04;8.50;99.90
23723;DHT22;12042;52.136;5.584;2023-02-16T11:53:32;8.50;99.90
23723;DHT22;12042;52.136;5.584;2023-02-16T11:56:24;8.50;99.90
23723;DHT22;12042;52.136;5.584;2023-02-16T11:59:13;8.50;99.90
23723;DHT22;12042;52.136;5.584;2023-02-16T12:01:52;8.60;99.90
23723;DHT22;12042;52.136;5.584;2023-02-16T12:09:51;8.60;99.90
23723;DHT22;12042;52.136;5.584;2023-02-16T12:12:32;8.70;99.90
23723;DHT22;12042;52.136;5.584;2023-02-16T12:18:11;8.70;99.90
23723;DHT22;12042;52.136;5.584;2023-02-16T12:20:54;8.70;99.90
23723;DHT22;12042;52.136;5.584;2023-02-16T12:29:21;8.80;99.90
23723;DHT22;12042;52.136;5.584;2023-02-16T12:38:05;9.00;99.90
23723;DHT22;12042;52.136;5.584;2023-02-16T12:40:50;9.00;99.90
23723;DHT22;12042;52.136;5.584;2023-02-16T12:43:49;9.10;99.90
23723;DHT22;12042;52.136;5.584;2023-02-16T12:46:21;9.20;99.90
23723;DHT22;12042;52.136;5.584;2023-02-16T12:48:54;9.20;99.90
23723;DHT22;12042;52.136;5.584;2023-02-16T12:51:48;9.30;99.90
23723;DHT22;12042;52.136;5.584;2023-02-16T12:54:29;9.40;99.90
23723;DHT22;12042;52.136;5.584;2023-02-16T12:57:23;9.40;99.90
23723;DHT22;12042;52.136;5.584;2023-02-16T13:00:03;9.50;99.90
23723;DHT22;12042;52.136;5.584;2023-02-16T13:02:40;9.50;99.90
23723;DHT22;12042;52.136;5.584;2023-02-16T13:05:20;9.50;99.90
23723;DHT22;12042;52.136;5.584;2023-02-16T13:07:51;9.50;99.90
23723;DHT22;12042;52.136;5.584;2023-02-16T13:10:32;9.60;99.90
23723;DHT22;12042;52.136;5.584;2023-02-16T13:13:12;9.80;99.90
23723;DHT22;12042;52.136;5.584;2023-02-16T13:15:51;10.00;99.90
23723;DHT22;12042;52.136;5.584;2023-02-16T13:18:21;10.00;99.90
23723;DHT22;12042;52.136;5.584;2023-02-16T13:20:59;9.90;99.90
23723;DHT22;12042;52.136;5.584;2023-02-16T13:23:31;9.90;99.90
23723;DHT22;12042;52.136;5.584;2023-02-16T13:26:16;9.90;99.90
23723;DHT22;12042;52.136;5.584;2023-02-16T13:29:05;10.00;99.90
23723;DHT22;12042;52.136;5.584;2023-02-16T13:42:47;10.20;99.90
23723;DHT22;12042;52.136;5.584;2023-02-16T13:45:23;10.30;99.90
23723;DHT22;12042;52.136;5.584;2023-02-16T13:47:52;10.30;99.90
23723;DHT22;12042;52.136;5.584;2023-02-16T13:52:47;10.30;99.90
23723;DHT22;12042;52.136;5.584;2023-02-16T13:55:28;10.40;99.90
23723;DHT22;12042;52.136;5.584;2023-02-16T13:58:02;10.50;99.90
23723;DHT22;12042;52.136;5.584;2023-02-16T14:00:39;10.50;99.90
23723;DHT22;12042;52.136;5.584;2023-02-16T14:05:51;10.60;99.90
23723;DHT22;12042;52.136;5.584;2023-02-16T14:08:21;10.70;99.90
23723;DHT22;12042;52.136;5.584;2023-02-16T14:13:31;10.80;99.90
23723;DHT22;12042;52.136;5.584;2023-02-16T14:16:23;10.80;99.90
23723;DHT22;12042;52.136;5.584;2023-02-16T14:19:37;10.90;99.90
23723;DHT22;12042;52.136;5.584;2023-02-16T14:21:48;10.90;99.90
23723;DHT22;12042;52.136;5.584;2023-02-16T14:29:58;10.90;99.90
23723;DHT22;12042;52.136;5.584;2023-02-16T14:32:28;10.90;99.90
23723;DHT22;12042;52.136;5.584;2023-02-16T14:35:13;10.80;99.90
23723;DHT22;12042;52.136;5.584;2023-02-16T14:37:53;10.80;99.90
23723;DHT22;12042;52.136;5.584;2023-02-16T14:43:21;10.80;99.90
23723;DHT22;12042;52.136;5.584;2023-02-16T14:45:58;10.90;99.90
23723;DHT22;12042;52.136;5.584;2023-02-16T14:49:02;10.90;99.90
23723;DHT22;12042;52.136;5.584;2023-02-16T14:57:12;11.00;99.90
23723;DHT22;12042;52.136;5.584;2023-02-16T15:02:33;11.10;99.90
23723;DHT22;12042;52.136;5.584;2023-02-16T15:05:17;11.10;99.90
23723;DHT22;12042;52.136;5.584;2023-02-16T15:07:47;11.10;99.90
23723;DHT22;12042;52.136;5.584;2023-02-16T15:10:24;11.10;99.90
23723;DHT22;12042;52.136;5.584;2023-02-16T15:12:51;11.10;99.90
23723;DHT22;12042;52.136;5.584;2023-02-16T15:15:21;11.10;99.90
23723;DHT22;12042;52.136;5.584;2023-02-16T15:17:50;11.10;99.90
23723;DHT22;12042;52.136;5.584;2023-02-16T15:20:29;11.10;99.90
23723;DHT22;12042;52.136;5.584;2023-02-16T15:22:58;11.00;99.90
23723;DHT22;12042;52.136;5.584;2023-02-16T15:25:28;11.00;99.90
23723;DHT22;12042;52.136;5.584;2023-02-16T15:28:03;11.10;99.90
23723;DHT22;12042;52.136;5.584;2023-02-16T15:30:34;11.10;99.90
23723;DHT22;12042;52.136;5.584;2023-02-16T15:33:05;11.00;99.90
23723;DHT22;12042;52.136;5.584;2023-02-16T15:35:42;11.00;99.90
23723;DHT22;12042;52.136;5.584;2023-02-16T15:38:20;11.00;99.90
23723;DHT22;12042;52.136;5.584;2023-02-16T15:40:50;11.00;99.90
23723;DHT22;12042;52.136;5.584;2023-02-16T15:46:23;10.90;99.90
23723;DHT22;12042;52.136;5.584;2023-02-16T15:48:51;10.90;99.90
23723;DHT22;12042;52.136;5.584;2023-02-16T15:51:20;10.90;99.90
23723;DHT22;12042;52.136;5.584;2023-02-16T16:04:31;10.80;99.90
23723;DHT22;12042;52.136;5.584;2023-02-16T16:07:04;10.80;99.90
23723;DHT22;12042;52.136;5.584;2023-02-16T16:09:31;10.80;99.90
23723;DHT22;12042;52.136;5.584;2023-02-16T16:11:59;10.80;99.90
23723;DHT22;12042;52.136;5.584;2023-02-16T16:14:26;10.70;99.90
23723;DHT22;12042;52.136;5.584;2023-02-16T16:16:53;10.70;99.90
23723;DHT22;12042;52.136;5.584;2023-02-16T16:19:32;10.70;99.90
23723;DHT22;12042;52.136;5.584;2023-02-16T16:21:58;10.70;99.90
23723;DHT22;12042;52.136;5.584;2023-02-16T16:24:36;10.60;99.90
23723;DHT22;12042;52.136;5.584;2023-02-16T16:27:11;10.60;99.90
23723;DHT22;12042;52.136;5.584;2023-02-16T16:29:45;10.60;99.90
23723;DHT22;12042;52.136;5.584;2023-02-16T16:32:25;10.50;99.90
23723;DHT22;12042;52.136;5.584;2023-02-16T16:34:53;10.50;99.90
23723;DHT22;12042;52.136;5.584;2023-02-16T16:37:34;10.40;99.90
23723;DHT22;12042;52.136;5.584;2023-02-16T16:42:29;10.30;99.90
23723;DHT22;12042;52.136;5.584;2023-02-16T16:47:50;10.30;99.90
23723;DHT22;12042;52.136;5.584;2023-02-16T16:52:45;10.10;99.90
23723;DHT22;12042;52.136;5.584;2023-02-16T16:57:56;10.10;99.90
23723;DHT22;12042;52.136;5.584;2023-02-16T17:00:29;10.10;99.90
23723;DHT22;12042;52.136;5.584;2023-02-16T17:02:56;10.10;99.90
23723;DHT22;12042;52.136;5.584;2023-02-16T17:05:23;10.10;99.90
23723;DHT22;12042;52.136;5.584;2023-02-16T17:07:48;10.10;99.90
23723;DHT22;12042;52.136;5.584;2023-02-16T17:10:17;10.10;99.90
23723;DHT22;12042;52.136;5.584;2023-02-16T17:12:44;10.10;99.90
23723;DHT22;12042;52.136;5.584;2023-02-16T17:15:31;10.00;99.90
23723;DHT22;12042;52.136;5.584;2023-02-16T17:17:58;10.00;99.90
23723;DHT22;12042;52.136;5.584;2023-02-16T17:20:24;10.00;99.90
23723;DHT22;12042;52.136;5.584;2023-02-16T17:22:50;10.00;99.90
23723;DHT22;12042;52.136;5.584;2023-02-16T17:25:16;10.00;99.90
23723;DHT22;12042;52.136;5.584;2023-02-16T17:27:41;10.00;99.90
23723;DHT22;12042;52.136;5.584;2023-02-16T17:30:07;10.00;99.90
23723;DHT22;12042;52.136;5.584;2023-02-16T17:32:35;10.00;99.90
23723;DHT22;12042;52.136;5.584;2023-02-16T17:35:04;10.00;99.90
23723;DHT22;12042;52.136;5.584;2023-02-16T17:37:33;10.00;99.90
23723;DHT22;12042;52.136;5.584;2023-02-16T17:40:00;10.00;99.90
23723;DHT22;12042;52.136;5.584;2023-02-16T17:42:25;10.00;99.90
23723;DHT22;12042;52.136;5.584;2023-02-16T17:44:51;10.00;99.90
23723;DHT22;12042;52.136;5.584;2023-02-16T17:47:16;10.00;99.90
23723;DHT22;12042;52.136;5.584;2023-02-16T17:49:49;10.00;99.90
23723;DHT22;12042;52.136;5.584;2023-02-16T17:52:34;10.00;99.90
23723;DHT22;12042;52.136;5.584;2023-02-16T17:55:00;10.10;99.90
23723;DHT22;12042;52.136;5.584;2023-02-16T17:57:26;10.20;99.90
23723;DHT22;12042;52.136;5.584;2023-02-16T18:00:04;10.20;99.90
23723;DHT22;12042;52.136;5.584;2023-02-16T18:02:29;10.20;99.90
23723;DHT22;12042;52.136;5.584;2023-02-16T18:04:57;10.20;99.90
23723;DHT22;12042;52.136;5.584;2023-02-16T18:07:23;10.20;99.90
23723;DHT22;12042;52.136;5.584;2023-02-16T18:09:49;10.20;99.90
23723;DHT22;12042;52.136;5.584;2023-02-16T18:12:15;10.20;99.90
23723;DHT22;12042;52.136;5.584;2023-02-16T18:14:40;10.20;99.90
23723;DHT22;12042;52.136;5.584;2023-02-16T18:17:06;10.20;99.90
23723;DHT22;12042;52.136;5.584;2023-02-16T18:19:32;10.20;99.90
23723;DHT22;12042;52.136;5.584;2023-02-16T18:21:58;10.20;99.90
23723;DHT22;12042;52.136;5.584;2023-02-16T18:24:25;10.20;99.90
23723;DHT22;12042;52.136;5.584;2023-02-16T18:26:50;10.10;99.90
23723;DHT22;12042;52.136;5.584;2023-02-16T18:29:18;10.10;99.90
23723;DHT22;12042;52.136;5.584;2023-02-16T18:31:44;10.20;99.90
23723;DHT22;12042;52.136;5.584;2023-02-16T18:34:10;10.20;99.90
23723;DHT22;12042;52.136;5.584;2023-02-16T18:36:36;10.20;99.90
23723;DHT22;12042;52.136;5.584;2023-02-16T18:39:04;10.20;99.90
23723;DHT22;12042;52.136;5.584;2023-02-16T18:41:30;10.20;99.90
23723;DHT22;12042;52.136;5.584;2023-02-16T18:43:56;10.10;99.90
23723;DHT22;12042;52.136;5.584;2023-02-16T18:46:21;10.10;99.90
23723;DHT22;12042;52.136;5.584;2023-02-16T18:48:47;10.10;99.90
23723;DHT22;12042;52.136;5.584;2023-02-16T18:51:13;10.10;99.90
23723;DHT22;12042;52.136;5.584;2023-02-16T18:53:40;10.10;99.90
23723;DHT22;12042;52.136;5.584;2023-02-16T18:56:08;10.10;99.90
23723;DHT22;12042;52.136;5.584;2023-02-16T18:58:37;10.10;99.90
23723;DHT22;12042;52.136;5.584;2023-02-16T19:03:48;10.20;99.90
23723;DHT22;12042;52.136;5.584;2023-02-16T19:06:13;10.20;99.90
23723;DHT22;12042;52.136;5.584;2023-02-16T19:08:39;10.20;99.90
23723;DHT22;12042;52.136;5.584;2023-02-16T19:11:04;10.10;99.90
23723;DHT22;12042;52.136;5.584;2023-02-16T19:13:30;10.10;99.90
23723;DHT22;12042;52.136;5.584;2023-02-16T19:15:55;10.10;99.90
23723;DHT22;12042;52.136;5.584;2023-02-16T19:18:21;10.10;99.90
23723;DHT22;12042;52.136;5.584;2023-02-16T19:20:47;10.10;99.90
23723;DHT22;12042;52.136;5.584;2023-02-16T19:23:12;10.10;99.90
23723;DHT22;12042;52.136;5.584;2023-02-16T19:25:38;10.10;99.90
23723;DHT22;12042;52.136;5.584;2023-02-16T19:28:04;10.10;99.90
23723;DHT22;12042;52.136;5.584;2023-02-16T19:30:29;10.10;99.90
23723;DHT22;12042;52.136;5.584;2023-02-16T19:32:55;10.10;99.90
23723;DHT22;12042;52.136;5.584;2023-02-16T19:35:21;10.10;99.90
23723;DHT22;12042;52.136;5.584;2023-02-16T19:37:46;10.10;99.90
23723;DHT22;12042;52.136;5.584;2023-02-16T19:40:12;10.10;99.90
23723;DHT22;12042;52.136;5.584;2023-02-16T19:42:39;10.10;99.90
23723;DHT22;12042;52.136;5.584;2023-02-16T19:45:04;10.10;99.90
23723;DHT22;12042;52.136;5.584;2023-02-16T19:47:30;10.10;99.90
23723;DHT22;12042;52.136;5.584;2023-02-16T19:49:56;10.20;99.90
23723;DHT22;12042;52.136;5.584;2023-02-16T19:52:22;10.20;99.90
23723;DHT22;12042;52.136;5.584;2023-02-16T19:54:47;10.30;99.90
23723;DHT22;12042;52.136;5.584;2023-02-16T19:57:14;10.50;99.90
23723;DHT22;12042;52.136;5.584;2023-02-16T19:59:39;10.50;99.90
23723;DHT22;12042;52.136;5.584;2023-02-16T20:02:05;10.50;99.90
23723;DHT22;12042;52.136;5.584;2023-02-16T20:04:31;10.70;99.90
23723;DHT22;12042;52.136;5.584;2023-02-16T20:06:56;10.70;99.90
23723;DHT22;12042;52.136;5.584;2023-02-16T20:09:23;10.60;99.90
23723;DHT22;12042;52.136;5.584;2023-02-16T20:11:50;10.60;99.90
23723;DHT22;12042;52.136;5.584;2023-02-16T20:14:16;10.70;99.90
23723;DHT22;12042;52.136;5.584;2023-02-16T20:16:42;10.60;99.90
23723;DHT22;12042;52.136;5.584;2023-02-16T20:19:08;10.60;99.90
23723;DHT22;12042;52.136;5.584;2023-02-16T20:21:34;10.60;99.90
23723;DHT22;12042;52.136;5.584;2023-02-16T20:24:02;10.50;99.90
23723;DHT22;12042;52.136;5.584;2023-02-16T20:26:36;10.50;99.90
23723;DHT22;12042;52.136;5.584;2023-02-16T20:29:04;10.60;99.90
23723;DHT22;12042;52.136;5.584;2023-02-16T20:34:01;10.60;99.90
23723;DHT22;12042;52.136;5.584;2023-02-16T20:36:27;10.70;99.90
23723;DHT22;12042;52.136;5.584;2023-02-16T20:38:52;10.70;99.90
23723;DHT22;12042;52.136;5.584;2023-02-16T20:41:19;10.60;99.90
23723;DHT22;12042;52.136;5.584;2023-02-16T20:43:45;10.60;99.90
23723;DHT22;12042;52.136;5.584;2023-02-16T20:46:12;10.60;99.90
23723;DHT22;12042;52.136;5.584;2023-02-16T20:48:38;10.50;99.90
23723;DHT22;12042;52.136;5.584;2023-02-16T20:51:05;10.60;99.90
23723;DHT22;12042;52.136;5.584;2023-02-16T20:53:32;10.70;99.90
23723;DHT22;12042;52.136;5.584;2023-02-16T20:56:16;10.70;99.90
23723;DHT22;12042;52.136;5.584;2023-02-16T20:58:43;10.70;99.90
23723;DHT22;12042;52.136;5.584;2023-02-16T21:01:15;10.70;99.90
23723;DHT22;12042;52.136;5.584;2023-02-16T21:03:41;10.70;99.90
23723;DHT22;12042;52.136;5.584;2023-02-16T21:06:06;10.70;99.90
23723;DHT22;12042;52.136;5.584;2023-02-16T21:08:32;10.70;99.90
23723;DHT22;12042;52.136;5.584;2023-02-16T21:10:57;10.70;99.90
23723;DHT22;12042;52.136;5.584;2023-02-16T21:13:23;10.70;99.90
23723;DHT22;12042;52.136;5.584;2023-02-16T21:15:49;10.70;99.90
23723;DHT22;12042;52.136;5.584;2023-02-16T21:18:14;10.80;99.90
